sensor_id;sensor_type;location;lat;lon;timestamp;P1;durP1;ratioP1;P2;durP2;ratioP2
60464;SDS011;46314;52.392;9.758;2022-12-18T00:01:22;20.67;;;13.18;;
60464;SDS011;46314;52.392;9.758;2022-12-18T00:03:50;20.05;;;13.20;;
60464;SDS011;46314;52.392;9.758;2022-12-18T00:06:17;23.13;;;13.52;;
60464;SDS011;46314;52.392;9.758;2022-12-18T00:08:45;16.88;;;12.57;;
60464;SDS011;46314;52.392;9.758;2022-12-18T00:11:13;19.40;;;12.13;;
60464;SDS011;46314;52.392;9.758;2022-12-18T00:13:42;22.20;;;13.52;;
60464;SDS011;46314;52.392;9.758;2022-12-18T00:16:09;24.40;;;13.82;;
60464;SDS011;46314;52.392;9.758;2022-12-18T00:18:38;20.27;;;12.82;;
60464;SDS011;46314;52.392;9.758;2022-12-18T00:21:07;22.30;;;13.45;;
60464;SDS011;46314;52.392;9.758;2022-12-18T00:23:35;19.98;;;12.77;;
60464;SDS011;46314;52.392;9.758;2022-12-18T00:26:04;23.95;;;14.40;;
60464;SDS011;46314;52.392;9.758;2022-12-18T00:28:32;18.77;;;12.15;;
60464;SDS011;46314;52.392;9.758;2022-12-18T00:31:01;17.55;;;12.57;;
60464;SDS011;46314;52.392;9.758;2022-12-18T00:33:28;22.10;;;13.35;;
60464;SDS011;46314;52.392;9.758;2022-12-18T00:35:59;20.15;;;12.38;;
60464;SDS011;46314;52.392;9.758;2022-12-18T00:38:26;18.33;;;13.68;;
60464;SDS011;46314;52.392;9.758;2022-12-18T00:40:53;23.83;;;12.85;;
60464;SDS011;46314;52.392;9.758;2022-12-18T00:43:19;20.17;;;12.45;;
60464;SDS011;46314;52.392;9.758;2022-12-18T00:45:46;19.35;;;11.65;;
60464;SDS011;46314;52.392;9.758;2022-12-18T00:48:14;19.90;;;12.88;;
60464;SDS011;46314;52.392;9.758;2022-12-18T00:50:40;20.52;;;12.75;;
60464;SDS011;46314;52.392;9.758;2022-12-18T00:53:10;22.13;;;12.57;;
60464;SDS011;46314;52.392;9.758;2022-12-18T00:55:37;22.52;;;12.20;;
60464;SDS011;46314;52.392;9.758;2022-12-18T00:58:03;21.33;;;13.90;;
60464;SDS011;46314;52.392;9.758;2022-12-18T01:00:30;20.77;;;11.75;;
60464;SDS011;46314;52.392;9.758;2022-12-18T01:02:56;20.33;;;13.18;;
60464;SDS011;46314;52.392;9.758;2022-12-18T01:05:25;22.55;;;13.55;;
60464;SDS011;46314;52.392;9.758;2022-12-18T01:07:51;20.88;;;13.88;;
60464;SDS011;46314;52.392;9.758;2022-12-18T01:10:18;21.80;;;12.93;;
60464;SDS011;46314;52.392;9.758;2022-12-18T01:12:45;23.58;;;12.77;;
60464;SDS011;46314;52.392;9.758;2022-12-18T01:15:12;19.25;;;12.68;;
60464;SDS011;46314;52.392;9.758;2022-12-18T01:17:39;20.23;;;11.45;;
60464;SDS011;46314;52.392;9.758;2022-12-18T01:20:06;23.45;;;12.73;;
60464;SDS011;46314;52.392;9.758;2022-12-18T01:22:35;21.38;;;11.88;;
60464;SDS011;46314;52.392;9.758;2022-12-18T01:25:02;23.55;;;12.85;;
60464;SDS011;46314;52.392;9.758;2022-12-18T01:27:30;22.20;;;12.23;;
60464;SDS011;46314;52.392;9.758;2022-12-18T01:29:56;19.85;;;12.95;;
60464;SDS011;46314;52.392;9.758;2022-12-18T01:32:23;19.58;;;12.10;;
60464;SDS011;46314;52.392;9.758;2022-12-18T01:34:49;20.17;;;11.90;;
60464;SDS011;46314;52.392;9.758;2022-12-18T01:37:15;19.52;;;11.90;;
60464;SDS011;46314;52.392;9.758;2022-12-18T01:39:43;20.95;;;12.65;;
60464;SDS011;46314;52.392;9.758;2022-12-18T01:42:11;19.17;;;11.75;;
60464;SDS011;46314;52.392;9.758;2022-12-18T01:44:55;19.77;;;12.10;;
60464;SDS011;46314;52.392;9.758;2022-12-18T01:47:25;18.02;;;11.15;;
60464;SDS011;46314;52.392;9.758;2022-12-18T01:49:55;17.85;;;11.75;;
60464;SDS011;46314;52.392;9.758;2022-12-18T01:52:23;19.67;;;11.38;;
60464;SDS011;46314;52.392;9.758;2022-12-18T01:54:52;18.23;;;12.18;;
60464;SDS011;46314;52.392;9.758;2022-12-18T01:57:19;18.80;;;10.93;;
60464;SDS011;46314;52.392;9.758;2022-12-18T01:59:47;22.35;;;13.10;;
60464;SDS011;46314;52.392;9.758;2022-12-18T02:02:17;18.75;;;11.10;;
60464;SDS011;46314;52.392;9.758;2022-12-18T02:04:44;20.60;;;11.52;;
60464;SDS011;46314;52.392;9.758;2022-12-18T02:07:17;18.50;;;11.68;;
60464;SDS011;46314;52.392;9.758;2022-12-18T02:09:53;19.25;;;11.35;;
60464;SDS011;46314;52.392;9.758;2022-12-18T02:12:25;19.58;;;11.65;;
60464;SDS011;46314;52.392;9.758;2022-12-18T02:14:58;20.55;;;11.32;;
60464;SDS011;46314;52.392;9.758;2022-12-18T02:17:29;18.08;;;11.75;;
60464;SDS011;46314;52.392;9.758;2022-12-18T02:20:05;18.33;;;11.27;;
60464;SDS011;46314;52.392;9.758;2022-12-18T02:22:39;22.63;;;12.45;;
60464;SDS011;46314;52.392;9.758;2022-12-18T02:25:19;18.77;;;12.00;;
60464;SDS011;46314;52.392;9.758;2022-12-18T02:27:57;21.60;;;12.25;;
60464;SDS011;46314;52.392;9.758;2022-12-18T02:30:27;19.67;;;11.93;;
60464;SDS011;46314;52.392;9.758;2022-12-18T02:32:57;18.13;;;11.27;;
60464;SDS011;46314;52.392;9.758;2022-12-18T02:35:27;19.73;;;12.63;;
60464;SDS011;46314;52.392;9.758;2022-12-18T02:37:56;21.73;;;12.68;;
60464;SDS011;46314;52.392;9.758;2022-12-18T02:40:24;17.77;;;11.00;;
60464;SDS011;46314;52.392;9.758;2022-12-18T02:42:53;16.25;;;10.60;;
60464;SDS011;46314;52.392;9.758;2022-12-18T02:45:21;17.85;;;10.98;;
60464;SDS011;46314;52.392;9.758;2022-12-18T02:47:48;18.63;;;11.90;;
60464;SDS011;46314;52.392;9.758;2022-12-18T02:50:16;20.13;;;11.88;;
60464;SDS011;46314;52.392;9.758;2022-12-18T02:52:50;20.25;;;11.80;;
60464;SDS011;46314;52.392;9.758;2022-12-18T02:55:28;21.15;;;12.38;;
60464;SDS011;46314;52.392;9.758;2022-12-18T02:58:03;19.27;;;12.05;;
60464;SDS011;46314;52.392;9.758;2022-12-18T03:00:33;18.23;;;11.60;;
60464;SDS011;46314;52.392;9.758;2022-12-18T03:03:05;23.38;;;13.35;;
60464;SDS011;46314;52.392;9.758;2022-12-18T03:05:38;21.17;;;12.90;;
60464;SDS011;46314;52.392;9.758;2022-12-18T03:08:10;16.02;;;10.68;;
60464;SDS011;46314;52.392;9.758;2022-12-18T03:10:41;35.53;;;14.63;;
60464;SDS011;46314;52.392;9.758;2022-12-18T03:13:16;17.98;;;11.30;;
60464;SDS011;46314;52.392;9.758;2022-12-18T03:15:49;19.60;;;12.32;;
60464;SDS011;46314;52.392;9.758;2022-12-18T03:18:20;20.33;;;12.38;;
60464;SDS011;46314;52.392;9.758;2022-12-18T03:20:51;21.08;;;13.23;;
60464;SDS011;46314;52.392;9.758;2022-12-18T03:23:20;16.27;;;11.30;;
60464;SDS011;46314;52.392;9.758;2022-12-18T03:25:52;20.25;;;12.45;;
60464;SDS011;46314;52.392;9.758;2022-12-18T03:28:22;22.02;;;12.65;;
60464;SDS011;46314;52.392;9.758;2022-12-18T03:30:51;19.33;;;12.30;;
60464;SDS011;46314;52.392;9.758;2022-12-18T03:33:24;25.85;;;13.90;;
60464;SDS011;46314;52.392;9.758;2022-12-18T03:35:53;21.73;;;14.48;;
60464;SDS011;46314;52.392;9.758;2022-12-18T03:38:20;19.75;;;13.00;;
60464;SDS011;46314;52.392;9.758;2022-12-18T03:40:50;21.05;;;12.80;;
60464;SDS011;46314;52.392;9.758;2022-12-18T03:43:25;22.02;;;14.77;;
60464;SDS011;46314;52.392;9.758;2022-12-18T03:46:04;20.75;;;13.68;;
60464;SDS011;46314;52.392;9.758;2022-12-18T03:48:35;23.10;;;13.43;;
60464;SDS011;46314;52.392;9.758;2022-12-18T03:53:37;24.58;;;12.15;;
60464;SDS011;46314;52.392;9.758;2022-12-18T03:58:39;21.55;;;12.63;;
60464;SDS011;46314;52.392;9.758;2022-12-18T04:01:09;18.90;;;11.73;;
60464;SDS011;46314;52.392;9.758;2022-12-18T04:03:39;20.30;;;12.18;;
60464;SDS011;46314;52.392;9.758;2022-12-18T04:06:08;20.10;;;11.88;;
60464;SDS011;46314;52.392;9.758;2022-12-18T04:08:36;20.88;;;12.27;;
60464;SDS011;46314;52.392;9.758;2022-12-18T04:11:03;23.38;;;12.25;;
60464;SDS011;46314;52.392;9.758;2022-12-18T04:13:32;22.92;;;12.40;;
60464;SDS011;46314;52.392;9.758;2022-12-18T04:16:01;21.52;;;13.20;;
60464;SDS011;46314;52.392;9.758;2022-12-18T04:18:30;19.92;;;13.02;;
60464;SDS011;46314;52.392;9.758;2022-12-18T04:20:56;23.25;;;12.77;;
60464;SDS011;46314;52.392;9.758;2022-12-18T04:23:23;19.90;;;11.85;;
60464;SDS011;46314;52.392;9.758;2022-12-18T04:25:49;22.83;;;12.18;;
60464;SDS011;46314;52.392;9.758;2022-12-18T04:28:16;19.50;;;12.68;;
60464;SDS011;46314;52.392;9.758;2022-12-18T04:30:43;18.92;;;12.77;;
60464;SDS011;46314;52.392;9.758;2022-12-18T04:33:09;22.60;;;13.30;;
60464;SDS011;46314;52.392;9.758;2022-12-18T04:35:38;22.05;;;11.65;;
60464;SDS011;46314;52.392;9.758;2022-12-18T04:38:05;22.88;;;13.70;;
60464;SDS011;46314;52.392;9.758;2022-12-18T04:40:32;21.50;;;12.77;;
60464;SDS011;46314;52.392;9.758;2022-12-18T04:42:58;19.13;;;12.93;;
60464;SDS011;46314;52.392;9.758;2022-12-18T04:45:25;18.73;;;11.73;;
60464;SDS011;46314;52.392;9.758;2022-12-18T04:47:51;20.08;;;11.85;;
60464;SDS011;46314;52.392;9.758;2022-12-18T04:50:18;19.20;;;12.20;;
60464;SDS011;46314;52.392;9.758;2022-12-18T04:52:46;21.20;;;12.35;;
60464;SDS011;46314;52.392;9.758;2022-12-18T04:55:12;19.38;;;12.43;;
60464;SDS011;46314;52.392;9.758;2022-12-18T04:57:38;21.80;;;13.65;;
60464;SDS011;46314;52.392;9.758;2022-12-18T05:00:05;18.40;;;11.27;;
60464;SDS011;46314;52.392;9.758;2022-12-18T05:02:33;15.35;;;10.57;;
60464;SDS011;46314;52.392;9.758;2022-12-18T05:04:59;21.95;;;12.25;;
60464;SDS011;46314;52.392;9.758;2022-12-18T05:07:26;20.75;;;12.25;;
60464;SDS011;46314;52.392;9.758;2022-12-18T05:09:54;17.80;;;10.95;;
60464;SDS011;46314;52.392;9.758;2022-12-18T05:12:20;19.00;;;10.90;;
60464;SDS011;46314;52.392;9.758;2022-12-18T05:14:47;19.65;;;11.68;;
60464;SDS011;46314;52.392;9.758;2022-12-18T05:17:13;17.00;;;10.38;;
60464;SDS011;46314;52.392;9.758;2022-12-18T05:19:40;17.35;;;10.40;;
60464;SDS011;46314;52.392;9.758;2022-12-18T05:22:06;20.50;;;12.38;;
60464;SDS011;46314;52.392;9.758;2022-12-18T05:24:33;19.45;;;11.30;;
60464;SDS011;46314;52.392;9.758;2022-12-18T05:27:01;19.55;;;11.25;;
60464;SDS011;46314;52.392;9.758;2022-12-18T05:29:27;16.15;;;10.57;;
60464;SDS011;46314;52.392;9.758;2022-12-18T05:31:53;22.50;;;11.95;;
60464;SDS011;46314;52.392;9.758;2022-12-18T05:34:20;19.65;;;10.55;;
60464;SDS011;46314;52.392;9.758;2022-12-18T05:36:46;17.17;;;11.55;;
60464;SDS011;46314;52.392;9.758;2022-12-18T05:39:13;18.45;;;11.05;;
60464;SDS011;46314;52.392;9.758;2022-12-18T05:41:39;16.98;;;10.30;;
60464;SDS011;46314;52.392;9.758;2022-12-18T05:44:08;18.20;;;10.52;;
60464;SDS011;46314;52.392;9.758;2022-12-18T05:46:34;17.35;;;11.82;;
60464;SDS011;46314;52.392;9.758;2022-12-18T05:49:01;17.15;;;11.10;;
60464;SDS011;46314;52.392;9.758;2022-12-18T05:51:27;19.17;;;10.63;;
60464;SDS011;46314;52.392;9.758;2022-12-18T05:53:54;15.85;;;10.45;;
60464;SDS011;46314;52.392;9.758;2022-12-18T05:56:21;19.35;;;12.27;;
60464;SDS011;46314;52.392;9.758;2022-12-18T05:58:50;19.25;;;11.43;;
60464;SDS011;46314;52.392;9.758;2022-12-18T06:01:20;19.40;;;12.13;;
60464;SDS011;46314;52.392;9.758;2022-12-18T06:03:48;18.48;;;12.00;;
60464;SDS011;46314;52.392;9.758;2022-12-18T06:06:15;17.98;;;10.80;;
60464;SDS011;46314;52.392;9.758;2022-12-18T06:08:43;18.38;;;10.57;;
60464;SDS011;46314;52.392;9.758;2022-12-18T06:11:12;17.92;;;10.05;;
60464;SDS011;46314;52.392;9.758;2022-12-18T06:13:38;19.27;;;10.98;;
60464;SDS011;46314;52.392;9.758;2022-12-18T06:16:06;18.45;;;10.38;;
60464;SDS011;46314;52.392;9.758;2022-12-18T06:18:34;16.08;;;11.25;;
60464;SDS011;46314;52.392;9.758;2022-12-18T06:21:00;17.92;;;10.45;;
60464;SDS011;46314;52.392;9.758;2022-12-18T06:23:27;17.65;;;10.80;;
60464;SDS011;46314;52.392;9.758;2022-12-18T06:25:54;16.92;;;11.48;;
60464;SDS011;46314;52.392;9.758;2022-12-18T06:28:20;15.38;;;9.55;;
60464;SDS011;46314;52.392;9.758;2022-12-18T06:30:47;16.60;;;9.77;;
60464;SDS011;46314;52.392;9.758;2022-12-18T06:33:14;16.88;;;10.63;;
60464;SDS011;46314;52.392;9.758;2022-12-18T06:35:42;16.20;;;10.75;;
60464;SDS011;46314;52.392;9.758;2022-12-18T06:38:09;19.40;;;10.13;;
60464;SDS011;46314;52.392;9.758;2022-12-18T06:40:36;18.20;;;10.60;;
60464;SDS011;46314;52.392;9.758;2022-12-18T06:43:03;16.08;;;9.50;;
60464;SDS011;46314;52.392;9.758;2022-12-18T06:45:30;19.15;;;10.98;;
60464;SDS011;46314;52.392;9.758;2022-12-18T06:47:57;15.07;;;9.73;;
60464;SDS011;46314;52.392;9.758;2022-12-18T06:50:24;20.20;;;10.73;;
60464;SDS011;46314;52.392;9.758;2022-12-18T06:52:52;16.30;;;10.15;;
60464;SDS011;46314;52.392;9.758;2022-12-18T06:55:18;15.57;;;9.60;;
60464;SDS011;46314;52.392;9.758;2022-12-18T06:57:44;15.23;;;9.70;;
60464;SDS011;46314;52.392;9.758;2022-12-18T07:00:11;15.15;;;10.52;;
60464;SDS011;46314;52.392;9.758;2022-12-18T07:02:38;13.68;;;9.02;;
60464;SDS011;46314;52.392;9.758;2022-12-18T07:05:05;13.68;;;9.65;;
60464;SDS011;46314;52.392;9.758;2022-12-18T07:07:36;16.23;;;9.85;;
60464;SDS011;46314;52.392;9.758;2022-12-18T07:10:04;15.07;;;10.25;;
60464;SDS011;46314;52.392;9.758;2022-12-18T07:12:31;17.73;;;9.98;;
60464;SDS011;46314;52.392;9.758;2022-12-18T07:14:57;15.40;;;10.18;;
60464;SDS011;46314;52.392;9.758;2022-12-18T07:17:24;16.98;;;9.68;;
60464;SDS011;46314;52.392;9.758;2022-12-18T07:19:50;15.95;;;10.25;;
60464;SDS011;46314;52.392;9.758;2022-12-18T07:22:17;15.50;;;9.00;;
60464;SDS011;46314;52.392;9.758;2022-12-18T07:24:44;16.25;;;9.50;;
60464;SDS011;46314;52.392;9.758;2022-12-18T07:27:11;16.40;;;10.00;;
60464;SDS011;46314;52.392;9.758;2022-12-18T07:29:38;20.23;;;12.05;;
60464;SDS011;46314;52.392;9.758;2022-12-18T07:32:05;15.25;;;9.82;;
60464;SDS011;46314;52.392;9.758;2022-12-18T07:34:32;15.85;;;9.50;;
60464;SDS011;46314;52.392;9.758;2022-12-18T07:36:58;16.85;;;10.00;;
60464;SDS011;46314;52.392;9.758;2022-12-18T07:39:25;18.17;;;10.45;;
60464;SDS011;46314;52.392;9.758;2022-12-18T07:41:51;19.70;;;10.18;;
60464;SDS011;46314;52.392;9.758;2022-12-18T07:44:19;21.75;;;10.75;;
60464;SDS011;46314;52.392;9.758;2022-12-18T07:46:45;15.13;;;9.82;;
60464;SDS011;46314;52.392;9.758;2022-12-18T07:49:12;18.52;;;11.70;;
60464;SDS011;46314;52.392;9.758;2022-12-18T07:51:38;19.80;;;11.32;;
60464;SDS011;46314;52.392;9.758;2022-12-18T07:54:04;21.77;;;12.38;;
60464;SDS011;46314;52.392;9.758;2022-12-18T07:56:31;19.73;;;12.27;;
60464;SDS011;46314;52.392;9.758;2022-12-18T07:58:58;21.88;;;12.02;;
60464;SDS011;46314;52.392;9.758;2022-12-18T08:01:26;21.38;;;12.40;;
60464;SDS011;46314;52.392;9.758;2022-12-18T08:03:53;19.40;;;11.30;;
60464;SDS011;46314;52.392;9.758;2022-12-18T08:06:19;19.70;;;12.45;;
60464;SDS011;46314;52.392;9.758;2022-12-18T08:08:50;22.08;;;12.60;;
60464;SDS011;46314;52.392;9.758;2022-12-18T08:11:17;21.92;;;11.85;;
60464;SDS011;46314;52.392;9.758;2022-12-18T08:13:45;19.33;;;11.23;;
60464;SDS011;46314;52.392;9.758;2022-12-18T08:16:11;14.90;;;9.48;;
60464;SDS011;46314;52.392;9.758;2022-12-18T08:18:39;23.45;;;10.23;;
60464;SDS011;46314;52.392;9.758;2022-12-18T08:21:09;17.20;;;10.00;;
60464;SDS011;46314;52.392;9.758;2022-12-18T08:23:35;12.98;;;9.65;;
60464;SDS011;46314;52.392;9.758;2022-12-18T08:26:08;17.88;;;9.75;;
60464;SDS011;46314;52.392;9.758;2022-12-18T08:28:34;17.42;;;10.45;;
60464;SDS011;46314;52.392;9.758;2022-12-18T08:31:01;17.33;;;9.45;;
60464;SDS011;46314;52.392;9.758;2022-12-18T08:33:28;16.25;;;9.23;;
60464;SDS011;46314;52.392;9.758;2022-12-18T08:35:56;16.35;;;9.35;;
60464;SDS011;46314;52.392;9.758;2022-12-18T08:38:24;16.38;;;10.20;;
60464;SDS011;46314;52.392;9.758;2022-12-18T08:40:53;17.98;;;8.93;;
60464;SDS011;46314;52.392;9.758;2022-12-18T08:43:24;13.93;;;8.75;;
60464;SDS011;46314;52.392;9.758;2022-12-18T08:45:51;16.55;;;9.32;;
60464;SDS011;46314;52.392;9.758;2022-12-18T08:48:17;15.05;;;9.20;;
60464;SDS011;46314;52.392;9.758;2022-12-18T08:50:53;13.75;;;9.90;;
60464;SDS011;46314;52.392;9.758;2022-12-18T08:53:21;15.52;;;8.35;;
60464;SDS011;46314;52.392;9.758;2022-12-18T08:55:48;13.93;;;10.05;;
60464;SDS011;46314;52.392;9.758;2022-12-18T08:58:15;19.27;;;11.43;;
60464;SDS011;46314;52.392;9.758;2022-12-18T09:00:42;18.13;;;10.40;;
60464;SDS011;46314;52.392;9.758;2022-12-18T09:03:10;14.80;;;9.30;;
60464;SDS011;46314;52.392;9.758;2022-12-18T09:05:37;19.10;;;10.15;;
60464;SDS011;46314;52.392;9.758;2022-12-18T09:08:04;13.05;;;8.95;;
60464;SDS011;46314;52.392;9.758;2022-12-18T09:10:32;16.00;;;9.35;;
60464;SDS011;46314;52.392;9.758;2022-12-18T09:13:01;16.35;;;9.75;;
60464;SDS011;46314;52.392;9.758;2022-12-18T09:15:28;13.30;;;8.95;;
60464;SDS011;46314;52.392;9.758;2022-12-18T09:17:54;15.48;;;9.20;;
60464;SDS011;46314;52.392;9.758;2022-12-18T09:20:20;16.63;;;9.77;;
60464;SDS011;46314;52.392;9.758;2022-12-18T09:22:47;15.07;;;8.30;;
60464;SDS011;46314;52.392;9.758;2022-12-18T09:25:13;14.30;;;9.27;;
60464;SDS011;46314;52.392;9.758;2022-12-18T09:27:41;16.52;;;9.57;;
60464;SDS011;46314;52.392;9.758;2022-12-18T09:30:08;15.05;;;9.48;;
60464;SDS011;46314;52.392;9.758;2022-12-18T09:32:35;14.50;;;9.25;;
60464;SDS011;46314;52.392;9.758;2022-12-18T09:35:02;14.75;;;9.15;;
60464;SDS011;46314;52.392;9.758;2022-12-18T09:37:29;20.30;;;10.73;;
60464;SDS011;46314;52.392;9.758;2022-12-18T09:39:55;15.73;;;8.77;;
60464;SDS011;46314;52.392;9.758;2022-12-18T09:42:22;16.63;;;9.90;;
60464;SDS011;46314;52.392;9.758;2022-12-18T09:44:50;15.30;;;9.07;;
60464;SDS011;46314;52.392;9.758;2022-12-18T09:47:19;12.40;;;8.80;;
60464;SDS011;46314;52.392;9.758;2022-12-18T09:49:50;16.35;;;9.30;;
60464;SDS011;46314;52.392;9.758;2022-12-18T09:52:21;17.33;;;9.20;;
60464;SDS011;46314;52.392;9.758;2022-12-18T09:54:53;14.15;;;8.68;;
60464;SDS011;46314;52.392;9.758;2022-12-18T09:57:24;17.10;;;8.55;;
60464;SDS011;46314;52.392;9.758;2022-12-18T09:59:53;17.85;;;10.02;;
60464;SDS011;46314;52.392;9.758;2022-12-18T10:02:22;18.10;;;9.73;;
60464;SDS011;46314;52.392;9.758;2022-12-18T10:04:55;15.18;;;8.70;;
60464;SDS011;46314;52.392;9.758;2022-12-18T10:07:29;14.13;;;9.00;;
60464;SDS011;46314;52.392;9.758;2022-12-18T10:10:04;17.38;;;8.98;;
60464;SDS011;46314;52.392;9.758;2022-12-18T10:12:40;15.35;;;9.55;;
60464;SDS011;46314;52.392;9.758;2022-12-18T10:15:19;14.23;;;9.98;;
60464;SDS011;46314;52.392;9.758;2022-12-18T10:17:51;19.60;;;10.23;;
60464;SDS011;46314;52.392;9.758;2022-12-18T10:20:27;16.55;;;10.45;;
60464;SDS011;46314;52.392;9.758;2022-12-18T10:22:59;14.30;;;9.00;;
60464;SDS011;46314;52.392;9.758;2022-12-18T10:25:31;14.30;;;9.10;;
60464;SDS011;46314;52.392;9.758;2022-12-18T10:28:07;13.50;;;9.30;;
60464;SDS011;46314;52.392;9.758;2022-12-18T10:30:39;14.85;;;9.35;;
60464;SDS011;46314;52.392;9.758;2022-12-18T10:33:08;15.45;;;9.90;;
60464;SDS011;46314;52.392;9.758;2022-12-18T10:35:37;13.40;;;9.30;;
60464;SDS011;46314;52.392;9.758;2022-12-18T10:38:20;14.68;;;9.07;;
60464;SDS011;46314;52.392;9.758;2022-12-18T10:40:49;11.02;;;7.78;;
60464;SDS011;46314;52.392;9.758;2022-12-18T10:43:19;19.38;;;9.35;;
60464;SDS011;46314;52.392;9.758;2022-12-18T10:45:59;13.63;;;8.48;;
60464;SDS011;46314;52.392;9.758;2022-12-18T10:48:28;15.43;;;8.35;;
60464;SDS011;46314;52.392;9.758;2022-12-18T10:50:57;14.45;;;8.88;;
60464;SDS011;46314;52.392;9.758;2022-12-18T10:53:39;10.88;;;7.57;;
60464;SDS011;46314;52.392;9.758;2022-12-18T10:56:07;13.30;;;9.18;;
60464;SDS011;46314;52.392;9.758;2022-12-18T10:58:35;11.27;;;7.65;;
60464;SDS011;46314;52.392;9.758;2022-12-18T11:01:05;10.00;;;7.40;;
60464;SDS011;46314;52.392;9.758;2022-12-18T11:03:35;12.82;;;8.38;;
60464;SDS011;46314;52.392;9.758;2022-12-18T11:06:04;11.45;;;8.20;;
60464;SDS011;46314;52.392;9.758;2022-12-18T11:08:33;13.48;;;8.80;;
60464;SDS011;46314;52.392;9.758;2022-12-18T11:11:00;13.55;;;8.57;;
60464;SDS011;46314;52.392;9.758;2022-12-18T11:13:27;11.45;;;8.23;;
60464;SDS011;46314;52.392;9.758;2022-12-18T11:15:56;13.52;;;7.85;;
60464;SDS011;46314;52.392;9.758;2022-12-18T11:18:26;11.27;;;8.20;;
60464;SDS011;46314;52.392;9.758;2022-12-18T11:20:55;15.70;;;8.52;;
60464;SDS011;46314;52.392;9.758;2022-12-18T11:23:24;8.85;;;6.80;;
60464;SDS011;46314;52.392;9.758;2022-12-18T11:25:58;12.57;;;7.75;;
60464;SDS011;46314;52.392;9.758;2022-12-18T11:28:28;10.25;;;7.57;;
60464;SDS011;46314;52.392;9.758;2022-12-18T11:31:22;16.38;;;7.97;;
60464;SDS011;46314;52.392;9.758;2022-12-18T11:33:56;10.18;;;7.82;;
60464;SDS011;46314;52.392;9.758;2022-12-18T11:36:46;10.85;;;7.18;;
60464;SDS011;46314;52.392;9.758;2022-12-18T11:39:15;13.35;;;6.43;;
60464;SDS011;46314;52.392;9.758;2022-12-18T11:41:49;9.63;;;6.57;;
60464;SDS011;46314;52.392;9.758;2022-12-18T11:44:22;10.32;;;6.78;;
60464;SDS011;46314;52.392;9.758;2022-12-18T11:46:55;10.13;;;6.87;;
60464;SDS011;46314;52.392;9.758;2022-12-18T11:49:28;13.88;;;7.07;;
60464;SDS011;46314;52.392;9.758;2022-12-18T11:52:00;9.82;;;6.60;;
60464;SDS011;46314;52.392;9.758;2022-12-18T11:54:30;9.10;;;6.18;;
60464;SDS011;46314;52.392;9.758;2022-12-18T11:56:58;10.55;;;7.32;;
60464;SDS011;46314;52.392;9.758;2022-12-18T11:59:37;9.23;;;6.45;;
60464;SDS011;46314;52.392;9.758;2022-12-18T12:02:19;11.60;;;6.80;;
60464;SDS011;46314;52.392;9.758;2022-12-18T12:05:01;11.23;;;6.95;;
60464;SDS011;46314;52.392;9.758;2022-12-18T12:07:42;13.10;;;7.57;;
60464;SDS011;46314;52.392;9.758;2022-12-18T12:12:55;12.98;;;7.78;;
60464;SDS011;46314;52.392;9.758;2022-12-18T12:15:34;12.77;;;8.32;;
60464;SDS011;46314;52.392;9.758;2022-12-18T12:18:08;13.48;;;7.82;;
60464;SDS011;46314;52.392;9.758;2022-12-18T12:20:53;13.75;;;8.48;;
60464;SDS011;46314;52.392;9.758;2022-12-18T12:23:30;13.30;;;8.32;;
60464;SDS011;46314;52.392;9.758;2022-12-18T12:26:08;15.68;;;10.05;;
60464;SDS011;46314;52.392;9.758;2022-12-18T12:31:52;13.52;;;8.40;;
60464;SDS011;46314;52.392;9.758;2022-12-18T12:34:29;12.48;;;8.05;;
60464;SDS011;46314;52.392;9.758;2022-12-18T12:37:08;10.80;;;7.25;;
60464;SDS011;46314;52.392;9.758;2022-12-18T12:39:45;12.23;;;6.53;;
60464;SDS011;46314;52.392;9.758;2022-12-18T12:42:15;9.38;;;6.60;;
60464;SDS011;46314;52.392;9.758;2022-12-18T12:44:47;11.25;;;7.20;;
60464;SDS011;46314;52.392;9.758;2022-12-18T12:47:23;11.55;;;7.10;;
60464;SDS011;46314;52.392;9.758;2022-12-18T12:49:55;12.05;;;8.07;;
60464;SDS011;46314;52.392;9.758;2022-12-18T12:52:27;13.02;;;7.57;;
60464;SDS011;46314;52.392;9.758;2022-12-18T12:54:58;16.05;;;9.10;;
60464;SDS011;46314;52.392;9.758;2022-12-18T12:57:30;14.25;;;8.95;;
60464;SDS011;46314;52.392;9.758;2022-12-18T13:00:01;14.68;;;8.57;;
60464;SDS011;46314;52.392;9.758;2022-12-18T13:02:33;15.35;;;9.00;;
60464;SDS011;46314;52.392;9.758;2022-12-18T13:05:08;18.23;;;10.00;;
60464;SDS011;46314;52.392;9.758;2022-12-18T13:07:45;15.15;;;9.63;;
60464;SDS011;46314;52.392;9.758;2022-12-18T13:10:24;16.65;;;10.57;;
60464;SDS011;46314;52.392;9.758;2022-12-18T13:13:01;17.10;;;10.25;;
60464;SDS011;46314;52.392;9.758;2022-12-18T13:15:32;15.77;;;10.38;;
60464;SDS011;46314;52.392;9.758;2022-12-18T13:18:22;17.23;;;10.23;;
60464;SDS011;46314;52.392;9.758;2022-12-18T13:20:51;17.58;;;11.38;;
60464;SDS011;46314;52.392;9.758;2022-12-18T13:23:34;18.23;;;10.60;;
60464;SDS011;46314;52.392;9.758;2022-12-18T13:28:58;19.10;;;11.30;;
60464;SDS011;46314;52.392;9.758;2022-12-18T13:34:26;21.17;;;11.95;;
60464;SDS011;46314;52.392;9.758;2022-12-18T13:36:55;18.75;;;10.40;;
60464;SDS011;46314;52.392;9.758;2022-12-18T13:39:30;17.40;;;12.50;;
60464;SDS011;46314;52.392;9.758;2022-12-18T13:45:07;23.35;;;14.02;;
60464;SDS011;46314;52.392;9.758;2022-12-18T13:48:16;19.75;;;12.15;;
60464;SDS011;46314;52.392;9.758;2022-12-18T13:50:48;22.85;;;12.63;;
60464;SDS011;46314;52.392;9.758;2022-12-18T13:53:21;23.30;;;13.50;;
60464;SDS011;46314;52.392;9.758;2022-12-18T13:55:50;22.10;;;13.40;;
60464;SDS011;46314;52.392;9.758;2022-12-18T13:58:17;22.75;;;13.52;;
60464;SDS011;46314;52.392;9.758;2022-12-18T14:00:45;19.23;;;12.38;;
60464;SDS011;46314;52.392;9.758;2022-12-18T14:03:19;25.73;;;12.93;;
60464;SDS011;46314;52.392;9.758;2022-12-18T14:05:52;22.58;;;14.00;;
60464;SDS011;46314;52.392;9.758;2022-12-18T14:10:51;27.08;;;13.65;;
60464;SDS011;46314;52.392;9.758;2022-12-18T14:13:19;29.27;;;15.93;;
60464;SDS011;46314;52.392;9.758;2022-12-18T14:15:51;27.98;;;15.02;;
60464;SDS011;46314;52.392;9.758;2022-12-18T14:18:21;22.67;;;14.55;;
60464;SDS011;46314;52.392;9.758;2022-12-18T14:20:50;24.83;;;14.63;;
60464;SDS011;46314;52.392;9.758;2022-12-18T14:23:25;24.98;;;15.60;;
60464;SDS011;46314;52.392;9.758;2022-12-18T14:25:54;28.35;;;16.10;;
60464;SDS011;46314;52.392;9.758;2022-12-18T14:28:21;29.30;;;17.35;;
60464;SDS011;46314;52.392;9.758;2022-12-18T14:30:49;26.67;;;15.95;;
60464;SDS011;46314;52.392;9.758;2022-12-18T14:33:18;27.02;;;14.50;;
60464;SDS011;46314;52.392;9.758;2022-12-18T14:35:52;27.10;;;15.35;;
60464;SDS011;46314;52.392;9.758;2022-12-18T14:38:22;26.95;;;15.50;;
60464;SDS011;46314;52.392;9.758;2022-12-18T14:40:51;38.95;;;16.90;;
60464;SDS011;46314;52.392;9.758;2022-12-18T14:43:19;28.27;;;16.30;;
60464;SDS011;46314;52.392;9.758;2022-12-18T14:45:46;27.02;;;16.02;;
60464;SDS011;46314;52.392;9.758;2022-12-18T14:48:15;22.88;;;14.05;;
60464;SDS011;46314;52.392;9.758;2022-12-18T14:50:55;29.20;;;15.75;;
60464;SDS011;46314;52.392;9.758;2022-12-18T14:53:28;26.70;;;15.68;;
60464;SDS011;46314;52.392;9.758;2022-12-18T14:55:59;29.60;;;16.90;;
60464;SDS011;46314;52.392;9.758;2022-12-18T14:58:26;27.48;;;14.35;;
60464;SDS011;46314;52.392;9.758;2022-12-18T15:00:54;29.23;;;17.17;;
60464;SDS011;46314;52.392;9.758;2022-12-18T15:03:21;27.30;;;16.85;;